sensor_id;sensor_type;location;lat;lon;timestamp;temperature;humidity
42145;DHT22;27813;43.516;11.890;2023-04-24T04:37:41;12.60;80.20
42145;DHT22;27813;43.516;11.890;2023-04-24T04:51:43;12.90;80.90
42145;DHT22;27813;43.516;11.890;2023-04-24T04:56:08;12.90;81.20
42145;DHT22;27813;43.516;11.890;2023-04-24T05:00:34;12.90;81.40
42145;DHT22;27813;43.516;11.890;2023-04-24T05:09:31;13.00;81.90
42145;DHT22;27813;43.516;11.890;2023-04-24T05:13:57;13.00;82.10
42145;DHT22;27813;43.516;11.890;2023-04-24T05:18:31;13.10;82.30
42145;DHT22;27813;43.516;11.890;2023-04-24T05:22:37;13.20;82.40
42145;DHT22;27813;43.516;11.890;2023-04-24T05:26:46;13.30;82.50
42145;DHT22;27813;43.516;11.890;2023-04-24T05:31:01;13.30;82.70
42145;DHT22;27813;43.516;11.890;2023-04-24T05:35:07;13.30;82.80
42145;DHT22;27813;43.516;11.890;2023-04-24T05:39:14;13.40;83.00
42145;DHT22;27813;43.516;11.890;2023-04-24T05:43:22;13.40;83.20
42145;DHT22;27813;43.516;11.890;2023-04-24T05:47:39;13.50;83.40
42145;DHT22;27813;43.516;11.890;2023-04-24T05:52:17;13.50;83.50
42145;DHT22;27813;43.516;11.890;2023-04-24T05:56:58;13.60;83.40
42145;DHT22;27813;43.516;11.890;2023-04-24T06:02:02;13.70;83.40
42145;DHT22;27813;43.516;11.890;2023-04-24T06:34:23;14.00;84.20
42145;DHT22;27813;43.516;11.890;2023-04-24T12:26:46;22.20;57.90
42145;DHT22;27813;43.516;11.890;2023-04-24T12:30:51;22.10;57.70
42145;DHT22;27813;43.516;11.890;2023-04-24T12:34:56;22.00;57.70
42145;DHT22;27813;43.516;11.890;2023-04-24T12:39:01;21.80;58.30
42145;DHT22;27813;43.516;11.890;2023-04-24T12:43:19;21.90;58.20
42145;DHT22;27813;43.516;11.890;2023-04-24T12:47:24;22.00;57.70
42145;DHT22;27813;43.516;11.890;2023-04-24T12:51:28;22.10;57.60
42145;DHT22;27813;43.516;11.890;2023-04-24T12:55:33;22.40;57.20
42145;DHT22;27813;43.516;11.890;2023-04-24T12:59:37;22.50;56.80
42145;DHT22;27813;43.516;11.890;2023-04-24T13:03:43;22.40;56.40
42145;DHT22;27813;43.516;11.890;2023-04-24T13:07:48;22.40;55.90
42145;DHT22;27813;43.516;11.890;2023-04-24T13:11:52;22.20;55.60
42145;DHT22;27813;43.516;11.890;2023-04-24T13:15:56;22.00;55.60
42145;DHT22;27813;43.516;11.890;2023-04-24T13:20:01;21.50;56.20
42145;DHT22;27813;43.516;11.890;2023-04-24T13:24:06;21.40;56.60
42145;DHT22;27813;43.516;11.890;2023-04-24T13:28:13;21.10;56.40
42145;DHT22;27813;43.516;11.890;2023-04-24T13:32:18;21.00;56.80
42145;DHT22;27813;43.516;11.890;2023-04-24T13:36:23;20.80;56.90
42145;DHT22;27813;43.516;11.890;2023-04-24T13:40:27;20.60;57.20
42145;DHT22;27813;43.516;11.890;2023-04-24T13:44:33;20.60;57.40
42145;DHT22;27813;43.516;11.890;2023-04-24T13:48:39;20.70;57.10
42145;DHT22;27813;43.516;11.890;2023-04-24T13:52:49;20.60;56.90
42145;DHT22;27813;43.516;11.890;2023-04-24T13:56:55;20.60;56.60
42145;DHT22;27813;43.516;11.890;2023-04-24T14:01:00;20.60;56.60
42145;DHT22;27813;43.516;11.890;2023-04-24T14:05:05;20.60;56.40
42145;DHT22;27813;43.516;11.890;2023-04-24T14:09:10;20.50;56.80
42145;DHT22;27813;43.516;11.890;2023-04-24T14:13:14;20.50;56.70
42145;DHT22;27813;43.516;11.890;2023-04-24T14:17:19;20.40;56.90
42145;DHT22;27813;43.516;11.890;2023-04-24T14:21:23;20.40;57.00
42145;DHT22;27813;43.516;11.890;2023-04-24T14:25:28;20.50;57.00
42145;DHT22;27813;43.516;11.890;2023-04-24T14:29:32;20.50;56.70
42145;DHT22;27813;43.516;11.890;2023-04-24T14:33:38;20.50;56.60
42145;DHT22;27813;43.516;11.890;2023-04-24T14:37:42;20.50;56.30
42145;DHT22;27813;43.516;11.890;2023-04-24T14:41:47;20.60;56.20
42145;DHT22;27813;43.516;11.890;2023-04-24T14:45:51;20.60;55.90
42145;DHT22;27813;43.516;11.890;2023-04-24T14:49:55;20.60;55.80
42145;DHT22;27813;43.516;11.890;2023-04-24T14:54:00;20.50;55.80
42145;DHT22;27813;43.516;11.890;2023-04-24T14:58:05;20.30;56.00
42145;DHT22;27813;43.516;11.890;2023-04-24T15:02:09;20.20;56.60
42145;DHT22;27813;43.516;11.890;2023-04-24T15:06:19;20.20;57.00
42145;DHT22;27813;43.516;11.890;2023-04-24T15:10:24;20.30;56.60
42145;DHT22;27813;43.516;11.890;2023-04-24T15:14:29;20.10;56.60
42145;DHT22;27813;43.516;11.890;2023-04-24T15:18:34;20.10;56.90
42145;DHT22;27813;43.516;11.890;2023-04-24T15:22:38;20.20;56.90
42145;DHT22;27813;43.516;11.890;2023-04-24T15:26:43;20.40;56.60
42145;DHT22;27813;43.516;11.890;2023-04-24T15:30:47;20.50;56.20
42145;DHT22;27813;43.516;11.890;2023-04-24T15:34:51;20.50;56.20
42145;DHT22;27813;43.516;11.890;2023-04-24T15:39:10;20.80;56.10
42145;DHT22;27813;43.516;11.890;2023-04-24T15:43:15;21.20;55.50
42145;DHT22;27813;43.516;11.890;2023-04-24T15:47:20;21.50;55.00
42145;DHT22;27813;43.516;11.890;2023-04-24T15:51:24;21.60;53.50
42145;DHT22;27813;43.516;11.890;2023-04-24T15:55:29;21.40;53.10
42145;DHT22;27813;43.516;11.890;2023-04-24T15:59:33;21.20;52.80
42145;DHT22;27813;43.516;11.890;2023-04-24T16:03:37;20.80;52.00
42145;DHT22;27813;43.516;11.890;2023-04-24T16:07:42;20.40;52.00
42145;DHT22;27813;43.516;11.890;2023-04-24T16:11:46;20.00;52.60
42145;DHT22;27813;43.516;11.890;2023-04-24T16:15:51;19.70;53.20
42145;DHT22;27813;43.516;11.890;2023-04-24T16:19:55;19.50;53.70
42145;DHT22;27813;43.516;11.890;2023-04-24T16:23:59;19.30;54.30
42145;DHT22;27813;43.516;11.890;2023-04-24T16:28:05;19.20;55.10
42145;DHT22;27813;43.516;11.890;2023-04-24T16:32:09;19.00;55.80
42145;DHT22;27813;43.516;11.890;2023-04-24T16:36:15;18.90;56.10
42145;DHT22;27813;43.516;11.890;2023-04-24T16:40:19;18.80;56.40
42145;DHT22;27813;43.516;11.890;2023-04-24T16:44:27;18.60;56.60
42145;DHT22;27813;43.516;11.890;2023-04-24T16:53:05;18.20;57.10
42145;DHT22;27813;43.516;11.890;2023-04-24T16:57:14;18.00;57.40
42145;DHT22;27813;43.516;11.890;2023-04-24T17:01:21;17.90;57.60
42145;DHT22;27813;43.516;11.890;2023-04-24T17:05:26;17.80;57.80
42145;DHT22;27813;43.516;11.890;2023-04-24T17:10:01;17.60;58.10
42145;DHT22;27813;43.516;11.890;2023-04-24T17:14:19;17.40;58.40
42145;DHT22;27813;43.516;11.890;2023-04-24T17:23:13;17.00;59.20
42145;DHT22;27813;43.516;11.890;2023-04-24T17:27:22;16.90;59.60
42145;DHT22;27813;43.516;11.890;2023-04-24T17:31:28;16.70;59.90
42145;DHT22;27813;43.516;11.890;2023-04-24T17:35:35;16.40;60.20
42145;DHT22;27813;43.516;11.890;2023-04-24T17:39:40;16.10;60.60
42145;DHT22;27813;43.516;11.890;2023-04-24T17:43:45;15.80;61.30
42145;DHT22;27813;43.516;11.890;2023-04-24T17:47:50;15.50;61.90
42145;DHT22;27813;43.516;11.890;2023-04-24T17:51:55;15.40;62.40
42145;DHT22;27813;43.516;11.890;2023-04-24T17:56:00;15.10;62.90
42145;DHT22;27813;43.516;11.890;2023-04-24T18:00:06;14.90;63.50
42145;DHT22;27813;43.516;11.890;2023-04-24T18:04:11;14.60;64.10
42145;DHT22;27813;43.516;11.890;2023-04-24T18:08:15;14.40;64.60
42145;DHT22;27813;43.516;11.890;2023-04-24T18:12:20;14.10;65.10
42145;DHT22;27813;43.516;11.890;2023-04-24T18:16:24;14.00;65.90
42145;DHT22;27813;43.516;11.890;2023-04-24T18:20:28;13.80;66.50
42145;DHT22;27813;43.516;11.890;2023-04-24T18:24:32;13.70;66.90
42145;DHT22;27813;43.516;11.890;2023-04-24T18:28:36;13.60;67.00
42145;DHT22;27813;43.516;11.890;2023-04-24T18:32:40;13.50;67.20
42145;DHT22;27813;43.516;11.890;2023-04-24T18:36:44;13.50;67.40
42145;DHT22;27813;43.516;11.890;2023-04-24T18:40:49;13.50;67.50
42145;DHT22;27813;43.516;11.890;2023-04-24T18:44:56;13.50;67.50
42145;DHT22;27813;43.516;11.890;2023-04-24T18:49:06;13.40;67.50
42145;DHT22;27813;43.516;11.890;2023-04-24T18:53:11;13.40;67.70
42145;DHT22;27813;43.516;11.890;2023-04-24T18:57:30;13.30;67.90
42145;DHT22;27813;43.516;11.890;2023-04-24T19:01:38;13.30;68.20
42145;DHT22;27813;43.516;11.890;2023-04-24T19:05:49;13.30;68.30
42145;DHT22;27813;43.516;11.890;2023-04-24T19:09:53;13.40;68.60
42145;DHT22;27813;43.516;11.890;2023-04-24T19:14:01;13.40;68.50
42145;DHT22;27813;43.516;11.890;2023-04-24T19:18:10;13.40;68.50
42145;DHT22;27813;43.516;11.890;2023-04-24T19:22:16;13.30;68.60
42145;DHT22;27813;43.516;11.890;2023-04-24T19:26:23;13.10;69.10
42145;DHT22;27813;43.516;11.890;2023-04-24T19:30:29;12.90;69.60
42145;DHT22;27813;43.516;11.890;2023-04-24T19:34:35;12.80;70.00
42145;DHT22;27813;43.516;11.890;2023-04-24T19:38:46;12.50;70.50
42145;DHT22;27813;43.516;11.890;2023-04-24T19:42:54;12.40;71.20
42145;DHT22;27813;43.516;11.890;2023-04-24T19:46:58;12.30;71.60
42145;DHT22;27813;43.516;11.890;2023-04-24T19:51:03;12.20;72.00
42145;DHT22;27813;43.516;11.890;2023-04-24T19:55:07;12.10;72.20
42145;DHT22;27813;43.516;11.890;2023-04-24T19:59:12;12.00;72.60
42145;DHT22;27813;43.516;11.890;2023-04-24T20:03:17;11.90;72.90
42145;DHT22;27813;43.516;11.890;2023-04-24T20:07:35;11.70;73.10
42145;DHT22;27813;43.516;11.890;2023-04-24T20:11:39;11.70;73.50
42145;DHT22;27813;43.516;11.890;2023-04-24T20:15:44;11.70;73.80
42145;DHT22;27813;43.516;11.890;2023-04-24T20:19:48;11.70;74.00
42145;DHT22;27813;43.516;11.890;2023-04-24T20:23:53;11.70;74.00
42145;DHT22;27813;43.516;11.890;2023-04-24T20:27:57;11.60;74.40
42145;DHT22;27813;43.516;11.890;2023-04-24T20:32:02;11.50;74.70
42145;DHT22;27813;43.516;11.890;2023-04-24T20:36:07;11.50;74.80
42145;DHT22;27813;43.516;11.890;2023-04-24T20:40:12;11.50;75.10
42145;DHT22;27813;43.516;11.890;2023-04-24T20:44:19;11.50;75.30
42145;DHT22;27813;43.516;11.890;2023-04-24T20:48:24;11.50;75.40
42145;DHT22;27813;43.516;11.890;2023-04-24T20:52:30;11.40;75.70
42145;DHT22;27813;43.516;11.890;2023-04-24T20:56:35;11.30;75.80
42145;DHT22;27813;43.516;11.890;2023-04-24T21:00:39;11.30;76.20
42145;DHT22;27813;43.516;11.890;2023-04-24T21:04:44;11.30;76.30
42145;DHT22;27813;43.516;11.890;2023-04-24T21:08:49;11.30;76.30
42145;DHT22;27813;43.516;11.890;2023-04-24T21:12:53;11.20;76.20
42145;DHT22;27813;43.516;11.890;2023-04-24T21:16:57;11.10;76.40
42145;DHT22;27813;43.516;11.890;2023-04-24T21:21:03;11.00;76.80
42145;DHT22;27813;43.516;11.890;2023-04-24T21:25:07;11.00;76.90
42145;DHT22;27813;43.516;11.890;2023-04-24T21:29:11;10.90;77.10
42145;DHT22;27813;43.516;11.890;2023-04-24T21:33:16;10.90;77.30
42145;DHT22;27813;43.516;11.890;2023-04-24T21:37:23;10.90;77.30
42145;DHT22;27813;43.516;11.890;2023-04-24T21:41:28;10.90;77.40
42145;DHT22;27813;43.516;11.890;2023-04-24T21:50:41;10.90;77.80
42145;DHT22;27813;43.516;11.890;2023-04-24T22:00:14;10.70;78.00
42145;DHT22;27813;43.516;11.890;2023-04-24T22:04:26;10.50;78.30
42145;DHT22;27813;43.516;11.890;2023-04-24T22:08:41;10.50;78.60
42145;DHT22;27813;43.516;11.890;2023-04-24T22:12:54;10.40;78.70
42145;DHT22;27813;43.516;11.890;2023-04-24T22:22:18;10.40;79.00
42145;DHT22;27813;43.516;11.890;2023-04-24T22:26:33;10.30;79.20
42145;DHT22;27813;43.516;11.890;2023-04-24T22:30:43;10.30;79.40
42145;DHT22;27813;43.516;11.890;2023-04-24T22:34:48;10.30;79.40
42145;DHT22;27813;43.516;11.890;2023-04-24T22:38:56;10.40;79.50
42145;DHT22;27813;43.516;11.890;2023-04-24T22:43:07;10.40;79.60
42145;DHT22;27813;43.516;11.890;2023-04-24T22:47:12;10.40;79.70
42145;DHT22;27813;43.516;11.890;2023-04-24T22:51:20;10.40;79.80
42145;DHT22;27813;43.516;11.890;2023-04-24T22:55:32;10.40;79.70
42145;DHT22;27813;43.516;11.890;2023-04-24T22:59:44;10.40;79.90
42145;DHT22;27813;43.516;11.890;2023-04-24T23:03:49;10.40;80.00
42145;DHT22;27813;43.516;11.890;2023-04-24T23:08:03;10.30;80.10
42145;DHT22;27813;43.516;11.890;2023-04-24T23:12:08;10.20;79.90
42145;DHT22;27813;43.516;11.890;2023-04-24T23:16:16;10.00;80.10
42145;DHT22;27813;43.516;11.890;2023-04-24T23:20:21;9.70;80.50
42145;DHT22;27813;43.516;11.890;2023-04-24T23:24:29;9.50;80.60
42145;DHT22;27813;43.516;11.890;2023-04-24T23:28:34;9.40;80.80
